createdAt,value
2018-03-11T00:02:02.343Z,99.90
2018-03-11T00:03:04.918Z,99.90
2018-03-11T00:04:07.389Z,99.90
2018-03-11T00:05:09.858Z,99.90
2018-03-11T00:06:12.337Z,99.90
2018-03-11T00:07:15.591Z,99.90
2018-03-11T00:08:18.061Z,99.90
2018-03-11T00:09:20.530Z,99.90
2018-03-11T00:10:23.009Z,99.90
2018-03-11T00:11:26.246Z,99.90
2018-03-11T00:12:28.742Z,99.90
2018-03-11T00:13:31.230Z,99.90
2018-03-11T00:14:34.466Z,99.90
2018-03-11T00:15:36.934Z,99.90
2018-03-11T00:16:39.405Z,99.90
2018-03-11T00:17:41.898Z,99.90
2018-03-11T00:18:45.138Z,99.90
2018-03-11T00:19:47.606Z,99.90
2018-03-11T00:20:50.074Z,99.90
2018-03-11T00:21:52.550Z,99.90
2018-03-11T00:22:55.038Z,99.90
2018-03-11T00:23:58.296Z,99.90
2018-03-11T00:25:02.282Z,99.90
2018-03-11T00:26:04.754Z,99.90
2018-03-11T00:27:07.230Z,99.90
2018-03-11T00:28:09.716Z,99.90
2018-03-11T00:29:12.984Z,99.90
2018-03-11T00:30:15.438Z,99.90
2018-03-11T00:31:17.926Z,99.90
2018-03-11T00:32:21.169Z,99.90
2018-03-11T00:33:23.660Z,99.90
2018-03-11T00:34:26.132Z,99.90
2018-03-11T00:35:29.378Z,99.90
2018-03-11T00:36:31.849Z,99.90
2018-03-11T00:37:34.326Z,99.90
2018-03-11T00:38:36.821Z,99.90
2018-03-11T00:39:40.058Z,99.90
2018-03-11T00:40:42.534Z,99.90
2018-03-11T00:41:45.010Z,99.90
2018-03-11T00:42:48.258Z,99.90
2018-03-11T00:43:50.759Z,99.90
2018-03-11T00:44:53.234Z,99.90
2018-03-11T00:45:56.478Z,99.90
2018-03-11T00:46:58.957Z,99.90
2018-03-11T00:48:01.430Z,99.90
2018-03-11T00:49:03.924Z,99.90
2018-03-11T00:50:07.170Z,99.90
2018-03-11T00:51:09.651Z,99.90
2018-03-11T00:52:12.125Z,99.90
2018-03-11T00:53:15.364Z,99.90
2018-03-11T00:54:17.857Z,99.90
2018-03-11T00:55:20.330Z,99.90
2018-03-11T00:56:23.578Z,99.90
2018-03-11T00:57:26.046Z,99.90
2018-03-11T00:58:28.521Z,99.90
2018-03-11T00:59:31.030Z,99.90
2018-03-11T01:00:33.507Z,99.90
2018-03-11T01:01:35.977Z,99.90
2018-03-11T01:02:38.454Z,99.90
2018-03-11T01:03:40.957Z,99.90
2018-03-11T01:04:44.261Z,99.90
2018-03-11T01:05:47.508Z,99.90
2018-03-11T01:06:49.998Z,99.90
2018-03-11T01:07:53.246Z,99.90
2018-03-11T01:08:55.722Z,99.90
2018-03-11T01:09:58.217Z,99.90
2018-03-11T01:11:01.454Z,99.90
2018-03-11T01:12:03.931Z,99.90
2018-03-11T01:13:06.410Z,99.90
2018-03-11T01:14:08.895Z,99.90
2018-03-11T01:15:12.158Z,99.90
2018-03-11T01:16:15.395Z,99.90
2018-03-11T01:17:18.933Z,99.90
2018-03-11T01:18:26.893Z,99.90
2018-03-11T01:19:30.010Z,99.90
2018-03-11T01:20:37.119Z,99.90
2018-03-11T01:21:40.177Z,99.90
2018-03-11T01:22:43.418Z,99.90
2018-03-11T01:23:45.886Z,99.90
2018-03-11T01:24:48.366Z,99.90
2018-03-11T01:27:22.074Z,99.90
2018-03-11T01:28:35.906Z,99.90
2018-03-11T01:29:44.378Z,99.90
2018-03-11T01:30:56.346Z,99.90
2018-03-11T01:32:03.907Z,99.90
2018-03-11T01:33:13.162Z,99.90
2018-03-11T01:36:03.018Z,99.90
2018-03-11T01:37:05.862Z,99.90
2018-03-11T01:38:09.122Z,99.90
2018-03-11T01:39:11.603Z,99.90
2018-03-11T01:40:14.102Z,99.90
2018-03-11T01:41:16.599Z,99.90
2018-03-11T01:42:19.081Z,99.90
2018-03-11T01:43:21.554Z,99.90
2018-03-11T01:44:24.126Z,99.90
2018-03-11T01:45:26.623Z,99.90
2018-03-11T01:46:29.124Z,99.90
2018-03-11T01:47:31.609Z,99.90
2018-03-11T01:48:34.082Z,99.90
2018-03-11T01:49:36.566Z,99.90
2018-03-11T01:50:39.811Z,99.90
2018-03-11T01:51:42.310Z,99.90
2018-03-11T01:52:57.495Z,99.90
2018-03-11T01:53:59.970Z,99.90
2018-03-11T01:55:02.450Z,99.90
2018-03-11T01:56:04.945Z,99.90
2018-03-11T01:57:07.433Z,99.90
2018-03-11T01:58:10.674Z,99.90
2018-03-11T01:59:13.158Z,99.90
2018-03-11T02:00:15.630Z,99.90
2018-03-11T02:01:18.106Z,99.90
2018-03-11T02:02:21.371Z,99.90
2018-03-11T02:03:23.942Z,99.90
2018-03-11T02:04:26.417Z,99.90
2018-03-11T02:05:28.886Z,99.90
2018-03-11T02:06:32.138Z,99.90
2018-03-11T02:07:34.630Z,99.90
2018-03-11T02:08:37.890Z,99.90
2018-03-11T02:09:40.366Z,99.90
2018-03-11T02:10:42.846Z,99.90
2018-03-11T02:11:46.091Z,99.90
2018-03-11T02:12:48.690Z,99.90
2018-03-11T02:13:51.926Z,99.90
2018-03-11T02:14:54.416Z,99.90
2018-03-11T02:15:56.890Z,99.90
2018-03-11T02:16:59.367Z,99.90
2018-03-11T02:18:02.638Z,99.90
2018-03-11T02:19:05.114Z,99.90
2018-03-11T02:20:08.354Z,99.90
2018-03-11T02:21:14.798Z,99.90
2018-03-11T02:22:17.278Z,99.90
2018-03-11T02:23:19.774Z,99.90
2018-03-11T02:24:22.250Z,99.90
2018-03-11T02:25:25.495Z,99.90
2018-03-11T02:26:27.968Z,99.90
2018-03-11T02:27:30.450Z,99.90
2018-03-11T02:28:32.951Z,99.90
2018-03-11T02:29:35.435Z,99.90
2018-03-11T02:30:37.923Z,99.90
2018-03-11T02:31:40.390Z,99.90
2018-03-11T02:32:42.915Z,99.90
2018-03-11T02:33:45.413Z,99.90
2018-03-11T02:34:47.888Z,99.90
2018-03-11T02:35:50.373Z,99.90
2018-03-11T02:36:52.846Z,99.90
2018-03-11T02:37:56.090Z,99.90
2018-03-11T02:38:58.590Z,99.90
2018-03-11T02:40:01.069Z,99.90
2018-03-11T02:41:04.338Z,99.90
2018-03-11T02:42:07.599Z,99.90
2018-03-11T02:43:10.091Z,99.90
2018-03-11T02:44:13.359Z,99.90
2018-03-11T02:45:15.841Z,99.90
2018-03-11T02:46:19.082Z,99.90
2018-03-11T02:47:21.563Z,99.90
2018-03-11T02:48:24.042Z,99.90
2018-03-11T02:49:26.554Z,99.90
2018-03-11T02:50:29.052Z,99.90
2018-03-11T02:51:31.527Z,99.90
2018-03-11T02:52:34.011Z,99.90
2018-03-11T02:53:37.254Z,99.90
2018-03-11T02:54:39.776Z,99.90
2018-03-11T02:55:42.254Z,99.90
2018-03-11T02:56:44.738Z,99.90
2018-03-11T02:57:47.212Z,99.90
2018-03-11T02:58:49.687Z,99.90
2018-03-11T02:59:52.184Z,99.90
2018-03-11T03:00:55.445Z,99.90
2018-03-11T03:01:57.946Z,99.90
2018-03-11T03:03:00.421Z,99.90
2018-03-11T03:04:02.901Z,99.90
2018-03-11T03:05:05.410Z,99.90
2018-03-11T03:06:07.891Z,99.90
2018-03-11T03:07:11.143Z,99.90
2018-03-11T03:08:13.626Z,99.90
2018-03-11T03:09:16.114Z,99.90
2018-03-11T03:10:19.678Z,99.90
2018-03-11T03:11:22.174Z,99.90
2018-03-11T03:12:24.645Z,99.90
2018-03-11T03:13:27.130Z,99.90
2018-03-11T03:14:29.611Z,99.90
2018-03-11T03:15:32.103Z,99.90
2018-03-11T03:16:34.570Z,99.90
2018-03-11T03:17:37.819Z,99.90
2018-03-11T03:18:40.302Z,99.90
2018-03-11T03:19:42.783Z,99.90
2018-03-11T03:20:45.272Z,99.90
2018-03-11T03:21:47.751Z,99.90
2018-03-11T03:22:50.233Z,99.90
2018-03-11T03:23:52.711Z,99.90
2018-03-11T03:24:55.199Z,99.90
2018-03-11T03:25:57.690Z,99.90
2018-03-11T03:27:00.178Z,99.90
2018-03-11T03:28:02.661Z,99.90
2018-03-11T03:29:05.143Z,99.90
2018-03-11T03:30:07.723Z,99.90
2018-03-11T03:31:10.219Z,99.90
2018-03-11T03:32:12.694Z,99.90
2018-03-11T03:33:15.171Z,99.90
2018-03-11T03:34:17.698Z,99.90
2018-03-11T03:35:20.942Z,99.90
2018-03-11T03:36:23.694Z,99.90
2018-03-11T03:37:26.202Z,99.90
2018-03-11T03:38:28.720Z,99.90
2018-03-11T03:39:31.168Z,99.90
2018-03-11T03:40:33.703Z,99.90
2018-03-11T03:41:36.196Z,99.90
2018-03-11T03:42:38.673Z,99.90
2018-03-11T03:43:41.163Z,99.90
2018-03-11T03:44:43.658Z,99.90
2018-03-11T03:45:46.135Z,99.90
2018-03-11T03:46:49.395Z,99.90
2018-03-11T03:47:51.890Z,99.90
2018-03-11T03:48:55.135Z,99.90
2018-03-11T03:49:57.619Z,99.90
2018-03-11T03:51:00.103Z,99.90
2018-03-11T03:52:03.367Z,99.90
2018-03-11T03:53:05.847Z,99.90
2018-03-11T03:54:09.090Z,99.90
2018-03-11T03:55:11.569Z,99.90
2018-03-11T03:56:14.072Z,99.90
2018-03-11T03:57:16.567Z,99.90
2018-03-11T03:58:19.043Z,99.90
2018-03-11T03:59:21.530Z,99.90
2018-03-11T04:00:24.010Z,99.90
2018-03-11T04:01:27.287Z,99.90
2018-03-11T04:02:30.562Z,99.90
2018-03-11T04:03:33.042Z,99.90
2018-03-11T04:04:36.289Z,99.90
2018-03-11T04:05:38.775Z,99.90
2018-03-11T04:06:41.259Z,99.90
2018-03-11T04:07:44.542Z,99.90
2018-03-11T04:08:47.790Z,99.90
2018-03-11T04:09:50.262Z,99.90
2018-03-11T04:10:52.747Z,99.90
2018-03-11T04:11:56.034Z,99.90
2018-03-11T04:12:59.302Z,99.90
2018-03-11T04:14:01.808Z,99.90
2018-03-11T04:15:04.291Z,99.90
2018-03-11T04:16:06.794Z,99.90
2018-03-11T04:17:09.283Z,99.90
2018-03-11T04:18:12.566Z,99.90
2018-03-11T04:19:15.818Z,99.90
2018-03-11T04:20:18.294Z,99.90
2018-03-11T04:21:21.561Z,99.90
2018-03-11T04:22:24.035Z,99.90
2018-03-11T04:23:26.533Z,99.90
2018-03-11T04:24:29.010Z,99.90
2018-03-11T04:25:31.547Z,99.90
2018-03-11T04:26:34.859Z,99.90
2018-03-11T04:27:37.330Z,99.90
2018-03-11T04:28:39.858Z,99.90
2018-03-11T04:29:43.146Z,99.90
2018-03-11T04:30:46.416Z,99.90
2018-03-11T04:31:48.913Z,99.90
2018-03-11T04:32:51.385Z,99.90
2018-03-11T04:33:53.885Z,99.90
2018-03-11T04:34:56.374Z,99.90
2018-03-11T04:35:58.878Z,99.90
2018-03-11T04:37:01.426Z,99.90
2018-03-11T04:38:04.673Z,99.90
2018-03-11T04:39:07.187Z,99.90
2018-03-11T04:40:09.662Z,99.90
2018-03-11T04:41:12.143Z,99.90
2018-03-11T04:42:14.630Z,99.90
2018-03-11T04:43:17.109Z,99.90
2018-03-11T04:44:19.603Z,99.90
2018-03-11T04:45:22.851Z,99.90
2018-03-11T04:46:25.428Z,99.90
2018-03-11T04:47:27.917Z,99.90
2018-03-11T04:48:31.158Z,99.90
2018-03-11T04:49:33.694Z,99.90
2018-03-11T04:50:36.179Z,99.90
2018-03-11T04:51:38.674Z,99.90
2018-03-11T04:52:41.153Z,99.90
2018-03-11T04:53:44.427Z,99.90
2018-03-11T04:54:47.802Z,99.90
2018-03-11T04:55:50.282Z,99.90
2018-03-11T04:56:53.527Z,99.90
2018-03-11T04:57:56.011Z,99.90
2018-03-11T04:58:58.494Z,99.90
2018-03-11T05:00:01.759Z,99.90
2018-03-11T05:01:04.239Z,99.90
2018-03-11T05:02:06.958Z,99.90
2018-03-11T05:03:09.450Z,99.90
2018-03-11T05:04:12.036Z,99.90
2018-03-11T05:05:14.982Z,99.90
2018-03-11T05:06:17.459Z,99.90
2018-03-11T05:07:19.952Z,99.90
2018-03-11T05:08:23.223Z,99.90
2018-03-11T05:09:27.206Z,99.90
2018-03-11T05:10:29.701Z,99.90
2018-03-11T05:11:32.964Z,99.90
2018-03-11T05:12:35.447Z,99.90
2018-03-11T05:13:38.698Z,99.90
2018-03-11T05:14:41.178Z,99.90
2018-03-11T05:15:44.447Z,99.90
2018-03-11T05:16:46.926Z,99.90
2018-03-11T05:17:49.498Z,99.90
2018-03-11T05:18:51.970Z,99.90
2018-03-11T05:19:55.215Z,99.90
2018-03-11T05:20:57.711Z,99.90
2018-03-11T05:22:00.970Z,99.90
2018-03-11T05:23:03.490Z,99.90
2018-03-11T05:24:05.966Z,99.90
2018-03-11T05:25:08.447Z,99.90
2018-03-11T05:26:10.959Z,99.90
2018-03-11T05:27:14.207Z,99.90
2018-03-11T05:28:16.691Z,99.90
2018-03-11T05:29:19.166Z,99.90
2018-03-11T05:30:21.735Z,99.90
2018-03-11T05:31:25.003Z,99.90
2018-03-11T05:32:27.482Z,99.90
2018-03-11T05:33:30.731Z,99.90
2018-03-11T05:34:33.202Z,99.90
2018-03-11T05:35:35.691Z,99.90
2018-03-11T05:36:38.458Z,99.90
2018-03-11T05:37:40.947Z,99.90
2018-03-11T05:38:44.194Z,99.90
2018-03-11T05:39:46.675Z,99.90
2018-03-11T05:40:49.243Z,99.90
2018-03-11T05:41:51.754Z,99.90
2018-03-11T05:42:54.234Z,99.90
2018-03-11T05:43:56.714Z,99.90
2018-03-11T05:44:59.206Z,99.90
2018-03-11T05:46:02.495Z,99.90
2018-03-11T05:47:05.757Z,99.90
2018-03-11T05:48:09.005Z,99.90
2018-03-11T05:49:11.552Z,99.90
2018-03-11T05:50:14.036Z,99.90
2018-03-11T05:51:16.551Z,99.90
2018-03-11T05:52:19.811Z,99.90
2018-03-11T05:53:22.298Z,99.90
2018-03-11T05:54:25.554Z,99.90
2018-03-11T05:55:28.030Z,99.90
2018-03-11T05:56:30.515Z,99.90
2018-03-11T05:57:33.791Z,99.90
2018-03-11T05:58:37.042Z,99.90
2018-03-11T05:59:39.523Z,99.90
2018-03-11T06:00:42.007Z,99.90
2018-03-11T06:01:45.258Z,99.90
2018-03-11T06:02:47.749Z,99.90
2018-03-11T06:03:50.238Z,99.90
2018-03-11T06:04:52.723Z,99.90
2018-03-11T06:05:55.194Z,99.90
2018-03-11T06:06:57.669Z,99.90
2018-03-11T06:08:00.168Z,99.90
2018-03-11T06:09:02.647Z,99.90
2018-03-11T06:10:05.907Z,99.90
2018-03-11T06:11:08.382Z,99.90
2018-03-11T06:12:10.869Z,99.90
2018-03-11T06:13:13.384Z,99.90
2018-03-11T06:14:15.858Z,99.90
2018-03-11T06:15:18.338Z,99.90
2018-03-11T06:16:20.814Z,99.90
2018-03-11T06:17:24.058Z,99.90
2018-03-11T06:18:26.559Z,99.90
2018-03-11T06:19:29.871Z,99.90
2018-03-11T06:20:32.407Z,99.90
2018-03-11T06:21:35.652Z,99.90
2018-03-11T06:22:38.131Z,99.90
2018-03-11T06:23:40.627Z,99.90
2018-03-11T06:24:43.873Z,99.90
2018-03-11T06:25:46.358Z,99.90
2018-03-11T06:26:48.839Z,99.90
2018-03-11T06:27:52.092Z,99.90
2018-03-11T06:28:54.595Z,99.90
2018-03-11T06:29:57.837Z,99.90
2018-03-11T06:31:00.318Z,99.90
2018-03-11T06:32:02.800Z,99.90
2018-03-11T06:33:06.047Z,99.90
2018-03-11T06:34:08.548Z,99.90
2018-03-11T06:35:11.784Z,99.90
2018-03-11T06:36:14.388Z,99.90
2018-03-11T06:37:17.638Z,99.90
2018-03-11T06:38:20.118Z,99.90
2018-03-11T06:39:22.616Z,99.90
2018-03-11T06:40:25.876Z,99.90
2018-03-11T06:41:29.114Z,99.90
2018-03-11T06:42:31.591Z,99.90
2018-03-11T06:43:34.083Z,99.90
2018-03-11T06:44:36.572Z,99.90
2018-03-11T06:45:39.817Z,99.90
2018-03-11T06:46:42.294Z,99.90
2018-03-11T06:47:44.775Z,99.90
2018-03-11T06:48:48.027Z,99.90
2018-03-11T06:49:50.522Z,99.90
2018-03-11T06:50:53.769Z,99.90
2018-03-11T06:51:56.258Z,99.90
2018-03-11T06:52:58.738Z,99.90
2018-03-11T06:54:01.983Z,99.90
2018-03-11T06:55:04.479Z,99.90
2018-03-11T06:56:07.723Z,99.90
2018-03-11T06:57:10.222Z,99.90
2018-03-11T06:58:12.719Z,99.90
2018-03-11T06:59:15.206Z,99.90
2018-03-11T07:00:17.706Z,99.90
2018-03-11T07:01:20.210Z,99.90
2018-03-11T07:02:22.690Z,99.90
2018-03-11T07:03:25.210Z,99.90
2018-03-11T07:04:27.678Z,99.90
2018-03-11T07:05:31.058Z,99.90
2018-03-11T07:06:33.635Z,99.90
2018-03-11T07:07:36.880Z,99.90
2018-03-11T07:08:39.486Z,99.90
2018-03-11T07:09:42.731Z,99.90
2018-03-11T07:10:45.530Z,99.90
2018-03-11T07:11:48.015Z,99.90
2018-03-11T07:12:51.253Z,99.90
2018-03-11T07:13:53.730Z,99.90
2018-03-11T07:14:56.202Z,99.90
2018-03-11T07:15:58.710Z,99.90
2018-03-11T07:17:01.186Z,99.90
2018-03-11T07:18:03.663Z,99.90
2018-03-11T07:19:06.147Z,99.90
2018-03-11T07:20:08.741Z,99.90
2018-03-11T07:21:12.004Z,99.90
2018-03-11T07:22:14.499Z,99.90
2018-03-11T07:23:17.748Z,99.90
2018-03-11T07:24:20.226Z,99.90
2018-03-11T07:25:23.462Z,99.90
2018-03-11T07:26:25.967Z,99.90
2018-03-11T07:27:28.438Z,99.90
2018-03-11T07:28:31.701Z,99.90
2018-03-11T07:29:34.187Z,99.90
2018-03-11T07:30:36.750Z,99.90
2018-03-11T07:31:39.255Z,99.90
2018-03-11T07:32:41.730Z,99.90
2018-03-11T07:33:44.206Z,99.90
2018-03-11T07:34:46.718Z,99.90
2018-03-11T07:35:49.963Z,99.90
2018-03-11T07:36:52.462Z,99.90
2018-03-11T07:37:55.026Z,99.90
2018-03-11T07:38:57.499Z,99.90
2018-03-11T07:40:00.747Z,99.90
2018-03-11T07:41:03.228Z,99.90
2018-03-11T07:42:05.718Z,99.90
2018-03-11T07:43:08.958Z,99.90
2018-03-11T07:44:11.443Z,99.90
2018-03-11T07:45:14.307Z,99.90
2018-03-11T07:46:16.782Z,99.90
2018-03-11T07:47:19.290Z,99.90
2018-03-11T07:48:21.776Z,99.90
2018-03-11T07:49:24.250Z,99.90
2018-03-11T07:50:26.751Z,99.90
2018-03-11T07:51:30.011Z,99.90
2018-03-11T07:52:32.498Z,99.90
2018-03-11T07:53:34.997Z,99.90
2018-03-11T07:54:37.583Z,99.90
2018-03-11T07:55:40.786Z,99.90
2018-03-11T07:56:43.262Z,99.90
2018-03-11T07:57:48.846Z,99.90
2018-03-11T07:58:51.338Z,99.90
2018-03-11T07:59:53.814Z,99.90
2018-03-11T08:00:56.312Z,99.90
2018-03-11T08:01:59.554Z,99.90
2018-03-11T08:03:02.067Z,99.90
2018-03-11T08:04:05.303Z,99.90
2018-03-11T08:05:07.779Z,99.90
2018-03-11T08:06:10.266Z,99.90
2018-03-11T08:07:12.742Z,99.90
2018-03-11T08:08:16.058Z,99.90
2018-03-11T08:09:19.275Z,99.90
2018-03-11T08:10:21.753Z,99.90
2018-03-11T08:11:24.318Z,99.90
2018-03-11T08:12:26.798Z,99.90
2018-03-11T08:13:30.059Z,99.90
2018-03-11T08:14:32.535Z,99.90
2018-03-11T08:15:35.798Z,99.90
2018-03-11T08:16:38.277Z,99.90
2018-03-11T08:17:40.750Z,99.90
2018-03-11T08:18:43.314Z,99.90
2018-03-11T08:19:45.822Z,99.90
2018-03-11T08:20:48.304Z,99.90
2018-03-11T08:21:50.809Z,99.90
2018-03-11T08:22:53.295Z,99.90
2018-03-11T08:23:56.562Z,99.90
2018-03-11T08:24:59.842Z,99.90
2018-03-11T08:26:02.323Z,99.90
2018-03-11T08:27:05.566Z,99.90
2018-03-11T08:28:08.039Z,99.90
2018-03-11T08:29:10.534Z,99.90
2018-03-11T08:30:13.778Z,99.90
2018-03-11T08:31:16.247Z,99.90
2018-03-11T08:32:18.726Z,99.90
2018-03-11T08:33:21.198Z,99.90
2018-03-11T08:34:24.462Z,99.90
2018-03-11T08:35:26.944Z,99.90
2018-03-11T08:36:29.432Z,99.90
2018-03-11T08:37:32.671Z,99.90
2018-03-11T08:38:35.142Z,99.90
2018-03-11T08:39:37.638Z,99.90
2018-03-11T08:40:40.878Z,99.90
2018-03-11T08:41:43.356Z,99.90
2018-03-11T08:42:45.897Z,99.90
2018-03-11T08:43:48.381Z,99.90
2018-03-11T08:44:50.902Z,99.90
2018-03-11T08:45:53.386Z,99.90
2018-03-11T08:46:55.875Z,99.90
2018-03-11T08:47:58.493Z,99.90
2018-03-11T08:49:01.019Z,99.90
2018-03-11T08:50:03.510Z,99.90
2018-03-11T08:51:06.742Z,99.90
2018-03-11T08:52:09.255Z,99.90
2018-03-11T08:53:12.498Z,99.90
2018-03-11T08:54:14.979Z,99.90
2018-03-11T08:55:17.495Z,99.90
2018-03-11T08:56:19.970Z,99.90
2018-03-11T08:57:22.450Z,99.90
2018-03-11T08:58:24.966Z,99.90
2018-03-11T08:59:28.226Z,99.90
2018-03-11T09:00:31.489Z,99.90
2018-03-11T09:01:33.978Z,99.90
2018-03-11T09:02:36.454Z,99.90
2018-03-11T09:03:39.703Z,99.90
2018-03-11T09:04:42.291Z,99.90
2018-03-11T09:05:45.061Z,99.90
2018-03-11T09:06:47.625Z,99.90
2018-03-11T09:07:50.099Z,99.90
2018-03-11T09:08:53.348Z,99.90
2018-03-11T09:09:55.830Z,99.90
2018-03-11T09:10:58.318Z,99.90
2018-03-11T09:12:01.558Z,99.90
2018-03-11T09:13:04.027Z,99.90
2018-03-11T09:14:06.498Z,99.90
2018-03-11T09:15:08.974Z,99.90
2018-03-11T09:16:11.462Z,99.90
2018-03-11T09:17:14.707Z,99.90
2018-03-11T09:18:17.183Z,99.90
2018-03-11T09:19:19.650Z,99.90
2018-03-11T09:20:22.133Z,99.90
2018-03-11T09:21:25.390Z,99.90
2018-03-11T09:22:27.859Z,99.90
2018-03-11T09:23:30.334Z,99.90
2018-03-11T09:24:33.583Z,99.90
2018-03-11T09:25:36.051Z,99.90
2018-03-11T09:26:38.539Z,99.90
2018-03-11T09:27:41.030Z,99.90
2018-03-11T09:28:44.274Z,99.90
2018-03-11T09:29:46.855Z,99.90
2018-03-11T09:30:49.331Z,99.90
2018-03-11T09:31:52.578Z,99.90
2018-03-11T09:32:55.046Z,99.90
2018-03-11T09:33:57.519Z,99.90
2018-03-11T09:34:59.996Z,99.90
2018-03-11T09:36:03.281Z,99.90
2018-03-11T09:37:07.283Z,99.90
2018-03-11T09:38:10.522Z,99.90
2018-03-11T09:39:13.023Z,99.90
2018-03-11T09:40:15.509Z,99.90
2018-03-11T09:41:17.994Z,99.90
2018-03-11T09:42:20.487Z,99.90
2018-03-11T09:43:22.966Z,99.90
2018-03-11T09:44:25.442Z,99.90
2018-03-11T09:45:27.916Z,99.90
2018-03-11T09:46:30.418Z,99.90
2018-03-11T09:47:32.906Z,99.90
2018-03-11T09:48:35.378Z,99.90
2018-03-11T09:49:37.846Z,99.90
2018-03-11T09:50:40.315Z,99.90
2018-03-11T09:51:42.791Z,99.90
2018-03-11T09:52:45.292Z,99.90
2018-03-11T09:53:48.526Z,99.90
2018-03-11T09:54:51.006Z,99.90
2018-03-11T09:55:53.484Z,99.90
2018-03-11T09:56:55.984Z,99.90
2018-03-11T09:57:58.546Z,99.90
2018-03-11T09:59:01.018Z,99.90
2018-03-11T10:00:03.510Z,99.90
2018-03-11T10:01:05.998Z,99.90
2018-03-11T10:02:08.486Z,99.90
2018-03-11T10:03:11.747Z,99.90
2018-03-11T10:04:14.220Z,99.90
2018-03-11T10:05:16.718Z,99.90
2018-03-11T10:06:19.195Z,99.90
2018-03-11T10:07:21.663Z,99.90
2018-03-11T10:08:24.158Z,99.90
2018-03-11T10:09:26.740Z,99.90
2018-03-11T10:10:29.210Z,99.90
2018-03-11T10:11:32.447Z,99.90
2018-03-11T10:12:34.922Z,99.90
2018-03-11T10:13:37.410Z,99.90
2018-03-11T10:14:39.878Z,99.90
2018-03-11T10:15:42.353Z,99.90
2018-03-11T10:16:45.594Z,99.90
2018-03-11T10:17:48.064Z,99.90
2018-03-11T10:18:50.549Z,99.90
2018-03-11T10:19:53.025Z,99.90
2018-03-11T10:20:55.582Z,99.90
2018-03-11T10:21:58.055Z,99.90
2018-03-11T10:23:02.035Z,99.90
2018-03-11T10:24:04.523Z,99.90
2018-03-11T10:25:07.806Z,99.90
2018-03-11T10:26:11.046Z,99.90
2018-03-11T10:27:13.510Z,99.90
2018-03-11T10:28:15.979Z,99.90
2018-03-11T10:29:18.488Z,99.90
2018-03-11T10:30:21.727Z,99.90
2018-03-11T10:31:24.218Z,99.90
2018-03-11T10:32:26.702Z,99.90
2018-03-11T10:33:29.934Z,99.90
2018-03-11T10:34:32.738Z,99.90
2018-03-11T10:35:35.206Z,99.90
2018-03-11T10:36:37.694Z,99.90
2018-03-11T10:37:40.927Z,99.90
2018-03-11T10:38:43.403Z,99.90
2018-03-11T10:39:45.886Z,99.90
2018-03-11T10:40:49.126Z,99.90
2018-03-11T10:41:51.594Z,99.90
2018-03-11T10:42:54.066Z,99.90
2018-03-11T10:43:56.546Z,99.90
2018-03-11T10:44:59.056Z,99.90
2018-03-11T10:46:01.525Z,99.90
2018-03-11T10:47:04.030Z,99.90
2018-03-11T10:48:06.494Z,99.90
2018-03-11T10:49:09.023Z,99.90
2018-03-11T10:50:11.551Z,99.90
2018-03-11T10:51:14.830Z,99.90
2018-03-11T10:52:17.303Z,99.90
2018-03-11T10:53:20.575Z,99.90
2018-03-11T10:54:23.042Z,99.90
2018-03-11T10:55:25.526Z,99.90
2018-03-11T10:56:28.765Z,99.90
2018-03-11T10:57:31.237Z,99.90
2018-03-11T10:58:33.703Z,99.90
2018-03-11T10:59:36.178Z,99.90
2018-03-11T11:00:43.183Z,99.90
2018-03-11T11:01:46.413Z,99.90
2018-03-11T11:02:48.887Z,99.90
2018-03-11T11:03:52.263Z,99.90
2018-03-11T11:05:00.586Z,99.90
2018-03-11T11:06:03.098Z,99.90
2018-03-11T11:07:05.575Z,99.90
2018-03-11T11:08:08.078Z,99.90
2018-03-11T11:09:10.550Z,99.90
2018-03-11T11:10:13.019Z,99.90
2018-03-11T11:11:16.279Z,99.90
2018-03-11T11:12:18.863Z,99.90
2018-03-11T11:13:21.333Z,99.90
2018-03-11T11:14:24.566Z,99.90
2018-03-11T11:15:27.040Z,99.90
2018-03-11T11:16:29.531Z,99.90
2018-03-11T11:17:31.998Z,99.90
2018-03-11T11:18:34.504Z,99.90
2018-03-11T11:19:36.969Z,99.90
2018-03-11T11:20:39.502Z,99.90
2018-03-11T11:21:42.751Z,99.90
2018-03-11T11:22:45.243Z,99.90
2018-03-11T11:23:47.711Z,99.90
2018-03-11T11:24:50.187Z,99.90
2018-03-11T11:25:53.419Z,99.90
2018-03-11T11:26:55.903Z,99.90
2018-03-11T11:27:58.372Z,99.90
2018-03-11T11:29:00.844Z,99.90
2018-03-11T11:30:03.315Z,99.90
2018-03-11T11:31:05.787Z,99.90
2018-03-11T11:32:09.038Z,99.90
2018-03-11T11:33:11.507Z,99.90
2018-03-11T11:34:13.995Z,99.90
2018-03-11T11:35:16.464Z,99.90
2018-03-11T11:36:19.706Z,99.90
2018-03-11T11:37:22.194Z,99.90
2018-03-11T11:38:24.662Z,99.90
2018-03-11T11:39:27.127Z,99.90
2018-03-11T11:40:29.615Z,99.90
2018-03-11T11:41:32.855Z,99.90
2018-03-11T11:42:35.346Z,99.90
2018-03-11T11:43:37.814Z,99.90
2018-03-11T11:44:41.046Z,99.90
2018-03-11T11:45:43.522Z,99.90
2018-03-11T11:46:46.002Z,99.90
2018-03-11T11:47:48.493Z,99.90
2018-03-11T11:48:51.792Z,99.90
2018-03-11T11:49:54.226Z,99.90
2018-03-11T11:50:56.702Z,99.90
2018-03-11T11:51:59.258Z,99.90
2018-03-11T11:53:01.748Z,99.90
2018-03-11T11:54:04.985Z,99.90
2018-03-11T11:55:08.867Z,99.90
2018-03-11T11:56:11.353Z,99.90
2018-03-11T11:57:13.935Z,99.90
2018-03-11T11:58:16.421Z,99.90
2018-03-11T11:59:19.667Z,99.90
2018-03-11T12:00:22.138Z,99.90
2018-03-11T12:01:24.606Z,99.90
2018-03-11T12:02:27.179Z,99.90
2018-03-11T12:03:29.671Z,99.90
2018-03-11T12:04:32.152Z,99.90
2018-03-11T12:05:34.630Z,99.90
2018-03-11T12:06:37.138Z,99.90
2018-03-11T12:07:40.422Z,99.90
2018-03-11T12:08:42.984Z,99.90
2018-03-11T12:09:45.623Z,99.90
2018-03-11T12:10:48.161Z,99.90
2018-03-11T12:11:50.642Z,99.90
2018-03-11T12:12:53.112Z,99.90
2018-03-11T12:13:55.610Z,99.90
2018-03-11T12:14:58.084Z,99.90
2018-03-11T12:16:01.317Z,99.90
2018-03-11T12:17:03.994Z,99.90
2018-03-11T12:18:06.464Z,99.90
2018-03-11T12:19:08.968Z,99.90
2018-03-11T12:20:11.464Z,99.80
2018-03-11T12:21:13.958Z,99.70
2018-03-11T12:22:16.438Z,99.50
2018-03-11T12:23:18.918Z,99.50
2018-03-11T12:24:21.403Z,99.30
2018-03-11T12:25:24.638Z,99.30
2018-03-11T12:26:27.106Z,99.10
2018-03-11T12:27:29.595Z,99.00
2018-03-11T12:28:32.072Z,99.10
2018-03-11T12:29:35.338Z,99.60
2018-03-11T12:30:37.876Z,99.30
2018-03-11T12:31:40.416Z,99.30
2018-03-11T12:32:42.906Z,99.40
2018-03-11T12:33:45.379Z,99.20
2018-03-11T12:34:47.866Z,99.20
2018-03-11T12:35:50.339Z,99.20
2018-03-11T12:36:53.579Z,98.90
2018-03-11T12:37:56.055Z,98.90
2018-03-11T12:38:58.523Z,99.00
2018-03-11T12:40:01.010Z,99.00
2018-03-11T12:41:04.308Z,99.30
2018-03-11T12:42:07.534Z,98.90
2018-03-11T12:43:10.003Z,98.90
2018-03-11T12:44:12.472Z,98.70
2018-03-11T12:45:15.543Z,98.60
2018-03-11T12:46:18.011Z,98.60
2018-03-11T12:47:20.511Z,98.50
2018-03-11T12:48:22.979Z,98.50
2018-03-11T12:49:26.950Z,98.30
2018-03-11T12:50:29.434Z,98.30
2018-03-11T12:51:33.419Z,98.30
2018-03-11T12:52:35.951Z,98.30
2018-03-11T12:53:39.158Z,98.50
2018-03-11T12:54:41.650Z,98.50
2018-03-11T12:55:44.158Z,98.30
2018-03-11T12:56:46.632Z,98.10
2018-03-11T12:57:49.102Z,97.90
2018-03-11T12:58:51.575Z,97.70
2018-03-11T12:59:54.047Z,97.50
2018-03-11T13:00:56.848Z,97.60
2018-03-11T13:02:00.085Z,97.50
2018-03-11T13:03:02.553Z,97.60
2018-03-11T13:04:05.038Z,97.70
2018-03-11T13:05:07.502Z,97.70
2018-03-11T13:06:09.987Z,97.70
2018-03-11T13:07:12.458Z,97.60
2018-03-11T13:08:15.711Z,97.50
2018-03-11T13:09:18.178Z,97.50
2018-03-11T13:10:20.646Z,97.40
2018-03-11T13:11:23.434Z,97.40
2018-03-11T13:12:25.898Z,97.40
2018-03-11T13:13:28.367Z,97.20
2018-03-11T13:14:30.932Z,97.00
2018-03-11T13:15:33.423Z,96.80
2018-03-11T13:16:35.910Z,96.70
2018-03-11T13:17:38.380Z,96.90
2018-03-11T13:18:40.854Z,96.90
2018-03-11T13:19:43.322Z,96.80
2018-03-11T13:20:57.746Z,96.50
2018-03-11T13:22:00.566Z,96.50
2018-03-11T13:23:03.040Z,96.50
2018-03-11T13:24:05.518Z,95.90
2018-03-11T13:25:08.749Z,95.70
2018-03-11T13:26:11.223Z,95.70
2018-03-11T13:27:13.814Z,95.80
2018-03-11T13:28:28.095Z,95.70
2018-03-11T13:29:30.567Z,95.80
2018-03-11T13:30:33.034Z,95.80
2018-03-11T13:31:35.506Z,95.80
2018-03-11T13:32:49.970Z,95.50
2018-03-11T13:34:04.347Z,95.50